createdAt,value
2018-04-29T00:01:53.581Z,99.90
2018-04-29T00:04:21.048Z,99.90
2018-04-29T00:06:48.610Z,99.90
2018-04-29T00:09:16.077Z,99.90
2018-04-29T00:11:43.657Z,99.90
2018-04-29T00:14:11.238Z,99.90
2018-04-29T00:16:39.466Z,99.90
2018-04-29T00:19:06.948Z,99.90
2018-04-29T00:21:34.432Z,99.90
2018-04-29T00:24:01.971Z,99.90
2018-04-29T00:26:29.505Z,99.90
2018-04-29T00:28:57.077Z,99.90
2018-04-29T00:31:24.542Z,99.90
2018-04-29T00:33:52.027Z,99.90
2018-04-29T00:36:19.517Z,99.90
2018-04-29T00:38:47.770Z,99.90
2018-04-29T00:41:15.335Z,99.90
2018-04-29T00:43:42.822Z,99.90
2018-04-29T00:46:10.356Z,99.90
2018-04-29T00:48:37.852Z,99.90
2018-04-29T00:51:05.348Z,99.90
2018-04-29T00:53:33.645Z,99.90
2018-04-29T00:56:01.894Z,99.90
2018-04-29T00:58:29.361Z,99.90
2018-04-29T01:00:56.843Z,99.90
2018-04-29T01:03:24.420Z,99.90
2018-04-29T01:05:51.988Z,99.90
2018-04-29T01:08:19.417Z,99.90
2018-04-29T01:10:46.924Z,99.90
2018-04-29T01:13:14.404Z,99.90
2018-04-29T01:15:41.871Z,99.90
2018-04-29T01:18:09.338Z,99.90
2018-04-29T01:20:36.802Z,99.90
2018-04-29T01:23:04.442Z,99.90
2018-04-29T01:25:31.932Z,99.90
2018-04-29T01:27:59.403Z,99.90
2018-04-29T01:30:26.957Z,99.90
2018-04-29T01:32:54.451Z,99.90
2018-04-29T01:35:21.924Z,99.90
2018-04-29T01:37:49.398Z,99.90
2018-04-29T01:40:16.874Z,99.90
2018-04-29T01:42:44.434Z,99.90
2018-04-29T01:45:11.921Z,99.90
2018-04-29T01:47:39.401Z,99.90
2018-04-29T01:50:07.673Z,99.90
2018-04-29T01:52:35.238Z,99.90
2018-04-29T01:55:02.790Z,99.90
2018-04-29T01:57:30.355Z,99.90
2018-04-29T01:59:57.845Z,99.90
2018-04-29T02:02:25.318Z,99.90
2018-04-29T02:04:52.805Z,99.90
2018-04-29T02:07:21.038Z,99.90
2018-04-29T02:09:48.554Z,99.90
2018-04-29T02:12:16.116Z,99.90
2018-04-29T02:14:43.701Z,99.90
2018-04-29T02:17:11.178Z,99.90
2018-04-29T02:19:38.645Z,99.90
2018-04-29T02:22:06.897Z,99.90
2018-04-29T02:24:34.354Z,99.90
2018-04-29T02:27:01.854Z,99.90
2018-04-29T02:29:29.444Z,99.90
2018-04-29T02:31:57.688Z,99.90
2018-04-29T02:34:25.187Z,99.90
2018-04-29T02:36:52.666Z,99.90
2018-04-29T02:39:20.131Z,99.90
2018-04-29T02:41:47.693Z,99.90
2018-04-29T02:44:15.171Z,99.90
2018-04-29T02:46:42.640Z,99.90
2018-04-29T02:49:10.115Z,99.90
2018-04-29T02:51:38.414Z,99.90
2018-04-29T02:54:06.687Z,99.90
2018-04-29T02:56:34.154Z,99.90
2018-04-29T02:59:01.645Z,99.90
2018-04-29T03:01:29.890Z,99.90
2018-04-29T03:03:57.348Z,99.90
2018-04-29T03:06:24.853Z,99.90
2018-04-29T03:08:52.428Z,99.90
2018-04-29T03:11:19.921Z,99.90
2018-04-29T03:13:48.192Z,99.90
2018-04-29T03:16:15.658Z,99.90
2018-04-29T03:18:43.214Z,99.90
2018-04-29T03:21:10.697Z,99.90
2018-04-29T03:23:38.255Z,99.90
2018-04-29T03:26:05.844Z,99.90
2018-04-29T03:28:33.418Z,99.90
2018-04-29T03:31:00.971Z,99.90
2018-04-29T03:33:28.457Z,99.90
2018-04-29T03:35:56.023Z,99.90
2018-04-29T03:38:23.512Z,99.90
2018-04-29T03:40:51.742Z,99.90
2018-04-29T03:43:19.264Z,99.90
2018-04-29T03:45:46.751Z,99.90
2018-04-29T03:48:14.989Z,99.90
2018-04-29T03:50:42.473Z,99.90
2018-04-29T03:53:11.461Z,99.90
2018-04-29T03:55:38.942Z,99.90
2018-04-29T03:58:18.512Z,99.90
2018-04-29T04:00:58.378Z,99.90
2018-04-29T04:03:37.715Z,99.90
2018-04-29T04:06:06.025Z,99.90
2018-04-29T04:11:24.800Z,99.90
2018-04-29T04:13:52.266Z,99.90
2018-04-29T04:16:19.746Z,99.90
2018-04-29T04:18:47.208Z,99.90
2018-04-29T04:21:14.690Z,99.90
2018-04-29T04:23:42.312Z,99.90
2018-04-29T04:26:09.700Z,99.90
2018-04-29T04:28:37.173Z,99.90
2018-04-29T04:31:04.646Z,99.90
2018-04-29T04:33:32.228Z,99.90
2018-04-29T04:35:59.695Z,99.90
2018-04-29T04:38:27.280Z,99.90
2018-04-29T04:40:55.540Z,99.90
2018-04-29T04:43:23.039Z,99.90
2018-04-29T04:45:50.527Z,99.90
2018-04-29T04:48:18.780Z,99.90
2018-04-29T04:50:46.382Z,99.90
2018-04-29T04:53:13.829Z,99.90
2018-04-29T04:55:41.284Z,99.90
2018-04-29T04:58:08.771Z,99.90
2018-04-29T05:00:36.224Z,99.90
2018-04-29T05:03:03.713Z,99.90
2018-04-29T05:05:31.302Z,99.90
2018-04-29T05:07:59.529Z,99.90
2018-04-29T05:10:27.014Z,99.90
2018-04-29T05:12:54.480Z,99.90
2018-04-29T05:15:21.963Z,99.90
2018-04-29T05:17:49.408Z,99.90
2018-04-29T05:20:16.891Z,99.90
2018-04-29T05:22:44.371Z,99.90
2018-04-29T05:25:11.966Z,99.90
2018-04-29T05:27:39.456Z,99.90
2018-04-29T05:30:07.669Z,99.90
2018-04-29T05:32:35.182Z,99.90
2018-04-29T05:35:02.671Z,99.90
2018-04-29T05:37:30.936Z,99.90
2018-04-29T05:39:58.392Z,99.90
2018-04-29T05:42:25.848Z,99.90
2018-04-29T05:44:53.331Z,99.90
2018-04-29T05:47:20.819Z,99.90
2018-04-29T05:52:39.341Z,99.90
2018-04-29T05:55:07.582Z,99.90
2018-04-29T05:57:35.056Z,99.90
2018-04-29T06:00:02.551Z,99.90
2018-04-29T06:02:30.016Z,99.90
2018-04-29T06:04:57.579Z,99.90
2018-04-29T06:07:25.136Z,99.90
2018-04-29T06:09:52.617Z,99.90
2018-04-29T06:12:20.142Z,99.90
2018-04-29T06:14:48.401Z,99.90
2018-04-29T06:17:15.855Z,99.90
2018-04-29T06:19:43.430Z,99.90
2018-04-29T06:22:10.896Z,99.90
2018-04-29T06:24:38.370Z,99.90
2018-04-29T06:27:05.824Z,99.90
2018-04-29T06:29:33.384Z,99.90
2018-04-29T06:32:00.917Z,99.90
2018-04-29T06:34:28.338Z,99.90
2018-04-29T06:36:55.789Z,99.90
2018-04-29T06:39:23.262Z,99.90
2018-04-29T06:41:50.824Z,99.90
2018-04-29T06:44:18.301Z,99.90
2018-04-29T06:46:45.831Z,99.90
2018-04-29T06:49:13.269Z,99.90
2018-04-29T06:51:40.728Z,99.90
2018-04-29T06:54:08.236Z,99.90
2018-04-29T06:56:36.491Z,99.90
2018-04-29T06:59:04.060Z,99.90
2018-04-29T07:01:31.555Z,99.90
2018-04-29T07:03:59.119Z,99.90
2018-04-29T07:06:26.573Z,99.90
2018-04-29T07:08:54.144Z,99.90
2018-04-29T07:11:21.598Z,99.90
2018-04-29T07:13:49.061Z,99.90
2018-04-29T07:16:16.547Z,99.90
2018-04-29T07:18:44.013Z,99.90
2018-04-29T07:21:11.482Z,99.90
2018-04-29T07:23:38.960Z,99.90
2018-04-29T07:26:06.453Z,99.90
2018-04-29T07:28:33.980Z,99.90
2018-04-29T07:31:02.152Z,99.90
2018-04-29T07:33:29.623Z,99.90
2018-04-29T07:35:57.074Z,99.90
2018-04-29T07:38:24.559Z,99.90
2018-04-29T07:40:52.013Z,99.90
2018-04-29T07:43:19.486Z,99.90
2018-04-29T07:45:46.959Z,99.90
2018-04-29T07:48:14.443Z,99.90
2018-04-29T07:50:41.926Z,99.90
2018-04-29T07:53:09.397Z,99.90
2018-04-29T07:55:36.868Z,99.90
2018-04-29T07:58:04.338Z,99.90
2018-04-29T08:00:31.818Z,99.90
2018-04-29T08:02:59.271Z,99.90
2018-04-29T08:05:26.733Z,99.90
2018-04-29T08:07:54.192Z,99.90
2018-04-29T08:10:21.685Z,99.90
2018-04-29T08:12:49.165Z,99.90
2018-04-29T08:15:16.643Z,99.90
2018-04-29T08:17:44.100Z,99.90
2018-04-29T08:20:11.575Z,99.90
2018-04-29T08:22:39.105Z,99.90
2018-04-29T08:25:06.506Z,99.90
2018-04-29T08:27:33.994Z,99.90
2018-04-29T08:30:01.495Z,99.90
2018-04-29T08:32:29.054Z,99.90
2018-04-29T08:34:56.476Z,99.90
2018-04-29T08:37:23.950Z,99.90
2018-04-29T08:39:51.434Z,99.90
2018-04-29T08:42:18.904Z,99.90
2018-04-29T08:44:46.483Z,99.90
2018-04-29T08:47:13.936Z,99.90
2018-04-29T08:49:41.412Z,99.90
2018-04-29T08:52:08.882Z,99.90
2018-04-29T08:54:36.382Z,99.90
2018-04-29T08:57:03.912Z,99.90
2018-04-29T08:59:31.406Z,99.90
2018-04-29T09:01:58.958Z,99.90
2018-04-29T09:04:26.442Z,99.90
2018-04-29T09:06:53.891Z,99.90
2018-04-29T09:09:21.377Z,99.90
2018-04-29T09:11:48.952Z,99.90
2018-04-29T09:14:16.417Z,99.90
2018-04-29T09:16:43.898Z,99.90
2018-04-29T09:19:11.460Z,99.90
2018-04-29T09:21:39.033Z,99.90
2018-04-29T09:24:06.498Z,99.90
2018-04-29T09:26:34.067Z,99.90
2018-04-29T09:29:01.540Z,99.90
2018-04-29T09:31:29.019Z,99.90
2018-04-29T09:33:56.491Z,99.90
2018-04-29T09:36:23.936Z,99.90
2018-04-29T09:38:51.409Z,99.90
2018-04-29T09:41:18.884Z,99.90
2018-04-29T09:43:46.348Z,99.90
2018-04-29T09:46:13.810Z,99.90
2018-04-29T09:48:41.369Z,99.90
2018-04-29T09:51:08.761Z,99.90
2018-04-29T09:53:36.228Z,99.90
2018-04-29T09:56:03.720Z,99.90
2018-04-29T09:58:31.272Z,99.90
2018-04-29T10:00:58.749Z,99.90
2018-04-29T10:03:26.211Z,99.90
2018-04-29T10:05:53.664Z,99.90
2018-04-29T10:08:21.129Z,99.90
2018-04-29T10:10:48.610Z,99.90
2018-04-29T10:13:16.094Z,99.90
2018-04-29T10:15:43.563Z,99.90
2018-04-29T10:18:11.041Z,99.90
2018-04-29T10:20:38.531Z,99.90
2018-04-29T10:23:06.779Z,99.90
2018-04-29T10:25:34.233Z,99.90
2018-04-29T10:28:01.716Z,99.90
2018-04-29T10:30:29.196Z,99.90
2018-04-29T10:32:56.684Z,99.90
2018-04-29T10:35:24.176Z,99.90
2018-04-29T10:37:52.398Z,99.90
2018-04-29T10:40:19.852Z,99.90
2018-04-29T10:42:47.326Z,99.90
2018-04-29T10:45:14.798Z,99.90
2018-04-29T10:47:42.284Z,99.90
2018-04-29T10:50:09.735Z,99.90
2018-04-29T10:52:37.255Z,99.90
2018-04-29T10:57:56.577Z,99.90
2018-04-29T11:00:24.122Z,99.90
2018-04-29T11:02:51.686Z,99.90
2018-04-29T11:05:19.159Z,99.90
2018-04-29T11:07:46.709Z,99.90
2018-04-29T11:10:14.125Z,99.90
2018-04-29T11:12:41.686Z,99.90
2018-04-29T11:15:09.259Z,99.90
2018-04-29T11:17:36.818Z,99.90
2018-04-29T11:20:04.408Z,99.90
2018-04-29T11:22:31.865Z,98.00
2018-04-29T11:24:59.546Z,96.00
2018-04-29T11:27:27.063Z,98.10
2018-04-29T11:29:55.313Z,95.60
2018-04-29T11:32:22.773Z,95.50
2018-04-29T11:34:50.358Z,92.20
2018-04-29T11:37:17.898Z,90.70
2018-04-29T11:39:45.378Z,84.90
2018-04-29T11:42:12.850Z,82.40
2018-04-29T11:44:40.329Z,79.30
2018-04-29T11:47:07.791Z,77.50
2018-04-29T11:49:35.346Z,78.10
2018-04-29T11:52:02.923Z,78.50
2018-04-29T11:54:30.402Z,82.20
2018-04-29T11:56:57.862Z,77.00
2018-04-29T11:59:25.358Z,78.00
2018-04-29T12:01:52.861Z,75.50
2018-04-29T12:04:21.079Z,76.70
2018-04-29T12:06:48.547Z,76.60
2018-04-29T12:09:16.014Z,72.70
2018-04-29T12:11:43.472Z,66.00
2018-04-29T12:14:10.922Z,64.50
2018-04-29T12:16:38.444Z,65.80
2018-04-29T12:19:05.914Z,64.80
2018-04-29T12:21:33.371Z,66.50
2018-04-29T12:24:00.842Z,66.70
2018-04-29T12:26:28.326Z,66.70
2018-04-29T12:28:55.806Z,65.10
2018-04-29T12:31:23.260Z,63.50
2018-04-29T12:33:50.713Z,65.30
2018-04-29T12:36:18.213Z,69.20
2018-04-29T12:38:45.686Z,67.50
2018-04-29T12:41:13.128Z,63.90
2018-04-29T12:43:40.591Z,63.80
2018-04-29T12:46:08.049Z,64.70
2018-04-29T12:48:35.502Z,64.50
2018-04-29T12:51:02.984Z,64.40
2018-04-29T12:53:30.451Z,66.00
2018-04-29T12:55:57.911Z,67.90
2018-04-29T12:58:25.367Z,67.90
2018-04-29T13:00:53.611Z,68.40
2018-04-29T13:03:21.084Z,68.30
2018-04-29T13:05:48.571Z,66.90
2018-04-29T13:08:16.041Z,66.90
2018-04-29T13:10:43.576Z,65.60
2018-04-29T13:13:11.054Z,66.20
2018-04-29T13:15:38.528Z,65.80
2018-04-29T13:18:06.022Z,64.50
2018-04-29T13:20:33.494Z,62.60
2018-04-29T13:23:00.966Z,59.80
2018-04-29T13:25:28.520Z,58.00
2018-04-29T13:27:56.086Z,56.10
2018-04-29T13:30:23.543Z,55.20
2018-04-29T13:32:51.016Z,55.70
2018-04-29T13:35:18.487Z,55.90
2018-04-29T13:37:45.931Z,57.10
2018-04-29T13:40:13.408Z,56.30
2018-04-29T13:42:40.859Z,56.40
2018-04-29T13:45:08.296Z,57.20
2018-04-29T13:47:36.520Z,57.10
2018-04-29T13:50:03.980Z,57.10
2018-04-29T13:52:31.453Z,56.70
2018-04-29T13:54:58.901Z,55.10
2018-04-29T13:57:27.135Z,52.00
2018-04-29T13:59:54.591Z,52.00
2018-04-29T14:02:22.111Z,51.20
2018-04-29T14:04:49.589Z,52.00
2018-04-29T14:07:17.180Z,51.30
2018-04-29T14:09:44.657Z,49.00
2018-04-29T14:12:12.171Z,49.00
2018-04-29T14:14:39.758Z,48.70
2018-04-29T14:17:08.724Z,48.10
2018-04-29T14:19:36.223Z,48.10
2018-04-29T14:22:03.799Z,48.60
2018-04-29T14:24:31.256Z,49.50
2018-04-29T14:26:58.727Z,49.70
2018-04-29T14:29:26.255Z,49.90
2018-04-29T14:31:54.504Z,51.00
2018-04-29T14:34:22.075Z,51.00
2018-04-29T14:36:49.557Z,51.50
2018-04-29T14:39:17.018Z,52.80
2018-04-29T14:41:44.510Z,53.90
2018-04-29T14:44:12.763Z,55.80
2018-04-29T14:46:40.224Z,55.80
2018-04-29T14:49:07.709Z,57.60
2018-04-29T14:51:35.184Z,58.10
2018-04-29T14:54:02.661Z,58.50
2018-04-29T14:56:30.102Z,56.60
2018-04-29T14:58:57.583Z,55.80
2018-04-29T15:01:25.073Z,56.10
2018-04-29T15:03:52.505Z,57.00
2018-04-29T15:06:19.957Z,57.40
2018-04-29T15:08:47.541Z,57.80
2018-04-29T15:11:15.003Z,58.40
2018-04-29T15:13:42.504Z,59.20
2018-04-29T15:16:10.155Z,60.40
2018-04-29T15:18:49.615Z,61.00
2018-04-29T15:21:17.086Z,61.70
2018-04-29T15:23:44.573Z,61.30
2018-04-29T15:26:12.131Z,61.70
2018-04-29T15:28:39.589Z,62.00
2018-04-29T15:31:07.085Z,62.10
2018-04-29T15:33:34.548Z,62.40
2018-04-29T15:36:01.991Z,63.10
2018-04-29T15:38:29.476Z,63.90
2018-04-29T15:40:56.944Z,65.50
2018-04-29T15:43:24.422Z,66.20
2018-04-29T15:45:51.900Z,66.80
2018-04-29T15:48:19.476Z,68.40
2018-04-29T15:50:46.942Z,68.00
2018-04-29T15:53:14.395Z,67.70
2018-04-29T15:55:41.921Z,66.20
2018-04-29T15:58:09.520Z,65.70
2018-04-29T16:00:36.899Z,65.90
2018-04-29T16:03:04.359Z,67.30
2018-04-29T16:05:31.812Z,68.60
2018-04-29T16:07:59.309Z,69.20
2018-04-29T16:10:26.788Z,70.50
2018-04-29T16:12:54.258Z,71.40
2018-04-29T16:15:21.710Z,72.00
2018-04-29T16:17:49.199Z,74.00
2018-04-29T16:20:16.646Z,75.70
2018-04-29T16:22:44.100Z,76.60
2018-04-29T16:25:11.572Z,77.30
2018-04-29T16:27:39.056Z,79.80
2018-04-29T16:30:06.523Z,79.30
2018-04-29T16:32:33.987Z,82.10
2018-04-29T16:35:01.473Z,83.40
2018-04-29T16:37:28.934Z,85.30
2018-04-29T16:39:56.394Z,87.10
2018-04-29T16:42:23.861Z,90.80
2018-04-29T16:44:51.364Z,90.20
2018-04-29T16:47:18.921Z,87.50
2018-04-29T16:49:46.405Z,87.70
2018-04-29T16:52:13.972Z,87.70
2018-04-29T16:54:41.428Z,88.40
2018-04-29T16:57:08.871Z,85.80
2018-04-29T16:59:36.337Z,86.70
2018-04-29T17:02:03.857Z,86.80
2018-04-29T17:04:31.311Z,87.90
2018-04-29T17:06:58.767Z,88.40
2018-04-29T17:09:26.260Z,89.20
2018-04-29T17:11:53.689Z,90.40
2018-04-29T17:14:21.158Z,91.40
2018-04-29T17:16:48.610Z,92.80
2018-04-29T17:19:16.138Z,93.00
2018-04-29T17:21:43.589Z,93.60
2018-04-29T17:24:11.156Z,94.10
2018-04-29T17:26:38.649Z,95.80
2018-04-29T17:29:06.226Z,95.90
2018-04-29T17:31:33.686Z,97.30
2018-04-29T17:34:01.909Z,99.90
2018-04-29T17:36:30.146Z,99.90
2018-04-29T17:38:57.635Z,99.90
2018-04-29T17:44:16.010Z,99.90
2018-04-29T17:46:43.394Z,99.90
2018-04-29T17:49:10.940Z,99.90
2018-04-29T17:51:38.406Z,99.90
2018-04-29T17:54:05.878Z,99.90
2018-04-29T17:56:33.375Z,99.90
2018-04-29T18:01:55.127Z,99.90
2018-04-29T18:07:13.431Z,99.90
2018-04-29T18:09:40.891Z,99.90
2018-04-29T18:12:08.386Z,99.90
2018-04-29T18:14:35.938Z,99.90
2018-04-29T18:17:03.512Z,99.90
2018-04-29T18:19:30.917Z,99.90
2018-04-29T18:21:58.805Z,99.90
2018-04-29T18:24:27.035Z,99.90
2018-04-29T18:26:54.627Z,99.90
2018-04-29T18:29:22.072Z,99.90
2018-04-29T18:31:49.539Z,99.90
2018-04-29T18:34:17.008Z,99.90
2018-04-29T18:36:44.474Z,99.90
2018-04-29T18:39:11.959Z,99.90
2018-04-29T18:41:39.438Z,99.90
2018-04-29T18:44:06.918Z,99.90
2018-04-29T18:46:34.363Z,99.90
2018-04-29T18:49:01.824Z,99.90
2018-04-29T18:51:29.404Z,99.90
2018-04-29T18:53:56.771Z,99.90
2018-04-29T18:56:24.959Z,99.90
2018-04-29T18:58:52.427Z,99.90
2018-04-29T19:01:19.887Z,99.90
2018-04-29T19:03:47.353Z,99.90
2018-04-29T19:06:14.828Z,99.90
2018-04-29T19:08:42.282Z,99.90
2018-04-29T19:11:09.760Z,99.90
2018-04-29T19:13:37.235Z,99.90
2018-04-29T19:16:04.692Z,99.90
2018-04-29T19:18:32.176Z,99.90
2018-04-29T19:23:51.111Z,99.90
2018-04-29T19:26:18.511Z,99.90
2018-04-29T19:28:46.021Z,99.90
2018-04-29T19:31:13.491Z,99.90
2018-04-29T19:33:40.965Z,99.90
2018-04-29T19:36:08.440Z,99.90
2018-04-29T19:38:35.939Z,99.90
2018-04-29T19:41:03.424Z,99.90
2018-04-29T19:43:30.902Z,99.90
2018-04-29T19:45:58.351Z,99.90
2018-04-29T19:48:26.595Z,99.90
2018-04-29T19:50:54.058Z,99.90
2018-04-29T19:53:21.530Z,99.90
2018-04-29T19:55:48.996Z,99.90
2018-04-29T19:58:17.172Z,99.90
2018-04-29T20:00:44.647Z,99.90
2018-04-29T20:03:12.100Z,99.90
2018-04-29T20:05:39.590Z,99.90
2018-04-29T20:08:07.036Z,99.90
2018-04-29T20:10:34.502Z,99.90
2018-04-29T20:13:01.997Z,99.90
2018-04-29T20:15:29.468Z,99.90
2018-04-29T20:17:56.946Z,99.90
2018-04-29T20:20:24.421Z,99.90
2018-04-29T20:22:51.875Z,99.90
2018-04-29T20:25:19.334Z,99.90
2018-04-29T20:30:37.517Z,99.90
2018-04-29T20:33:04.988Z,99.90
2018-04-29T20:35:32.488Z,99.90
2018-04-29T20:38:00.032Z,99.90
2018-04-29T20:40:27.426Z,99.90
2018-04-29T20:42:54.882Z,99.90
2018-04-29T20:45:22.389Z,99.90
2018-04-29T20:47:49.877Z,99.90
2018-04-29T20:50:18.126Z,99.90
2018-04-29T20:52:45.631Z,99.90
2018-04-29T20:55:13.861Z,99.90
2018-04-29T20:57:41.346Z,99.90
2018-04-29T21:00:08.861Z,99.90
2018-04-29T21:02:37.223Z,99.90
2018-04-29T21:05:04.809Z,99.90
2018-04-29T21:07:32.295Z,99.90
2018-04-29T21:10:00.530Z,99.90
2018-04-29T21:12:28.016Z,99.90
2018-04-29T21:14:55.614Z,99.90
2018-04-29T21:17:23.202Z,99.90
2018-04-29T21:19:51.697Z,99.90
2018-04-29T21:22:19.986Z,99.90
2018-04-29T21:24:47.416Z,99.90
2018-04-29T21:27:14.896Z,99.90
2018-04-29T21:29:42.377Z,99.90
2018-04-29T21:32:09.961Z,99.90
2018-04-29T21:34:38.315Z,99.90
2018-04-29T21:37:05.791Z,99.90
2018-04-29T21:39:33.255Z,99.90
2018-04-29T21:42:00.745Z,99.90
2018-04-29T21:44:28.233Z,99.90
2018-04-29T21:46:56.499Z,99.90
2018-04-29T21:49:24.078Z,99.90
2018-04-29T21:51:51.593Z,99.90
2018-04-29T21:54:19.064Z,99.90
2018-04-29T21:56:49.449Z,99.90
2018-04-29T21:59:16.945Z,99.90
2018-04-29T22:01:45.190Z,99.90
2018-04-29T22:04:12.786Z,99.90
2018-04-29T22:06:40.257Z,99.90
2018-04-29T22:09:07.821Z,99.90
2018-04-29T22:11:35.289Z,99.90
2018-04-29T22:14:02.786Z,99.90
2018-04-29T22:16:30.293Z,99.90
2018-04-29T22:18:57.797Z,99.90
2018-04-29T22:21:25.266Z,99.90
2018-04-29T22:23:52.844Z,99.90
2018-04-29T22:26:20.311Z,99.90
2018-04-29T22:28:47.866Z,99.90
2018-04-29T22:31:15.350Z,99.90
2018-04-29T22:33:42.818Z,99.90
2018-04-29T22:36:10.375Z,99.90
2018-04-29T22:38:37.959Z,99.90
2018-04-29T22:41:05.437Z,99.90
2018-04-29T22:43:32.929Z,99.90
2018-04-29T22:46:01.204Z,99.90
2018-04-29T22:48:28.743Z,99.90
2018-04-29T22:50:56.229Z,99.90
2018-04-29T22:53:23.691Z,99.90
2018-04-29T22:55:51.170Z,99.90
2018-04-29T22:58:20.154Z,99.90
2018-04-29T23:00:47.612Z,99.90
2018-04-29T23:03:15.099Z,99.90
2018-04-29T23:05:42.575Z,99.90
2018-04-29T23:08:10.149Z,99.90
2018-04-29T23:10:37.729Z,99.90
2018-04-29T23:13:05.187Z,99.90
2018-04-29T23:15:32.669Z,99.90
2018-04-29T23:18:00.139Z,99.90
2018-04-29T23:20:27.617Z,99.90
2018-04-29T23:22:55.101Z,99.90
2018-04-29T23:25:23.346Z,99.90
2018-04-29T23:27:50.798Z,99.90
2018-04-29T23:30:18.279Z,99.90
2018-04-29T23:32:45.766Z,99.90
2018-04-29T23:35:13.251Z,99.90
2018-04-29T23:37:40.742Z,99.90
2018-04-29T23:40:08.979Z,99.90
2018-04-29T23:42:36.577Z,99.90
2018-04-29T23:45:04.055Z,99.90
2018-04-29T23:47:31.726Z,99.90
2018-04-29T23:49:59.211Z,99.90
2018-04-29T23:52:27.480Z,99.90
2018-04-29T23:54:55.050Z,99.90
2018-04-29T23:57:22.545Z,99.90
